sensor_id;sensor_type;location;lat;lon;timestamp;temperature;humidity
21037;DHT22;10677;50.942;4.028;2024-01-11T00:01:35;-1.20;99.90
21037;DHT22;10677;50.942;4.028;2024-01-11T00:04:00;-1.30;99.90
21037;DHT22;10677;50.942;4.028;2024-01-11T00:06:26;-1.30;99.90
21037;DHT22;10677;50.942;4.028;2024-01-11T00:08:52;-1.30;99.90
21037;DHT22;10677;50.942;4.028;2024-01-11T00:11:17;-1.30;99.90
21037;DHT22;10677;50.942;4.028;2024-01-11T00:13:43;-1.40;99.90
21037;DHT22;10677;50.942;4.028;2024-01-11T00:16:09;-1.40;99.90
21037;DHT22;10677;50.942;4.028;2024-01-11T00:18:34;-1.30;99.90
21037;DHT22;10677;50.942;4.028;2024-01-11T00:21:00;-1.30;99.90
21037;DHT22;10677;50.942;4.028;2024-01-11T00:23:26;-1.30;99.90
21037;DHT22;10677;50.942;4.028;2024-01-11T00:25:51;-1.30;99.90
21037;DHT22;10677;50.942;4.028;2024-01-11T00:28:17;-1.20;99.90
21037;DHT22;10677;50.942;4.028;2024-01-11T00:30:43;-1.30;99.90
21037;DHT22;10677;50.942;4.028;2024-01-11T00:33:08;-1.30;99.90
21037;DHT22;10677;50.942;4.028;2024-01-11T00:35:34;-1.50;99.90
21037;DHT22;10677;50.942;4.028;2024-01-11T00:38:00;-1.50;99.90
21037;DHT22;10677;50.942;4.028;2024-01-11T00:40:26;-1.20;99.90
21037;DHT22;10677;50.942;4.028;2024-01-11T00:42:51;-1.10;99.90
21037;DHT22;10677;50.942;4.028;2024-01-11T00:45:17;-1.00;99.90
21037;DHT22;10677;50.942;4.028;2024-01-11T00:47:43;-1.10;99.90
21037;DHT22;10677;50.942;4.028;2024-01-11T00:50:09;-1.20;99.90
21037;DHT22;10677;50.942;4.028;2024-01-11T00:52:35;-1.10;99.90
21037;DHT22;10677;50.942;4.028;2024-01-11T00:55:00;-1.20;99.90
21037;DHT22;10677;50.942;4.028;2024-01-11T00:57:26;-1.30;99.90
21037;DHT22;10677;50.942;4.028;2024-01-11T00:59:52;-1.40;99.90
21037;DHT22;10677;50.942;4.028;2024-01-11T01:02:20;-1.50;99.90
21037;DHT22;10677;50.942;4.028;2024-01-11T01:04:46;-1.50;99.90
21037;DHT22;10677;50.942;4.028;2024-01-11T01:07:11;-1.50;99.90
21037;DHT22;10677;50.942;4.028;2024-01-11T01:09:37;-1.30;99.90
21037;DHT22;10677;50.942;4.028;2024-01-11T01:12:03;-1.40;99.90
21037;DHT22;10677;50.942;4.028;2024-01-11T01:14:28;-1.40;99.90
21037;DHT22;10677;50.942;4.028;2024-01-11T01:16:54;-1.40;99.90
21037;DHT22;10677;50.942;4.028;2024-01-11T01:19:20;-1.50;99.90
21037;DHT22;10677;50.942;4.028;2024-01-11T01:21:45;-1.60;99.90
21037;DHT22;10677;50.942;4.028;2024-01-11T01:24:11;-1.70;99.90
21037;DHT22;10677;50.942;4.028;2024-01-11T01:26:37;-1.70;99.90
21037;DHT22;10677;50.942;4.028;2024-01-11T01:29:03;-1.70;99.90
21037;DHT22;10677;50.942;4.028;2024-01-11T01:31:29;-1.70;99.90
21037;DHT22;10677;50.942;4.028;2024-01-11T01:33:55;-1.60;99.90
21037;DHT22;10677;50.942;4.028;2024-01-11T01:36:20;-1.60;99.90
21037;DHT22;10677;50.942;4.028;2024-01-11T01:38:46;-1.50;99.90
21037;DHT22;10677;50.942;4.028;2024-01-11T01:41:12;-1.50;99.90
21037;DHT22;10677;50.942;4.028;2024-01-11T01:43:37;-1.60;99.90
21037;DHT22;10677;50.942;4.028;2024-01-11T01:46:05;-1.60;99.90
21037;DHT22;10677;50.942;4.028;2024-01-11T01:48:31;-1.60;99.90
21037;DHT22;10677;50.942;4.028;2024-01-11T01:50:56;-1.60;99.90
21037;DHT22;10677;50.942;4.028;2024-01-11T01:53:23;-1.60;99.90
21037;DHT22;10677;50.942;4.028;2024-01-11T01:55:50;-1.60;99.90
21037;DHT22;10677;50.942;4.028;2024-01-11T01:58:17;-1.60;99.90
21037;DHT22;10677;50.942;4.028;2024-01-11T02:00:45;-1.50;99.90
21037;DHT22;10677;50.942;4.028;2024-01-11T02:03:11;-1.50;99.90
21037;DHT22;10677;50.942;4.028;2024-01-11T02:05:37;-1.50;99.90
21037;DHT22;10677;50.942;4.028;2024-01-11T02:08:06;-1.50;99.90
21037;DHT22;10677;50.942;4.028;2024-01-11T02:10:34;-1.50;99.90
21037;DHT22;10677;50.942;4.028;2024-01-11T02:13:01;-1.50;99.90
21037;DHT22;10677;50.942;4.028;2024-01-11T02:15:29;-1.50;99.90
21037;DHT22;10677;50.942;4.028;2024-01-11T02:17:55;-1.60;99.90
21037;DHT22;10677;50.942;4.028;2024-01-11T02:20:21;-1.60;99.90
21037;DHT22;10677;50.942;4.028;2024-01-11T02:22:50;-1.60;99.90
21037;DHT22;10677;50.942;4.028;2024-01-11T02:25:18;-1.60;99.90
21037;DHT22;10677;50.942;4.028;2024-01-11T02:27:50;-1.70;99.90
21037;DHT22;10677;50.942;4.028;2024-01-11T02:30:16;-1.70;99.90
21037;DHT22;10677;50.942;4.028;2024-01-11T02:32:48;-1.70;99.90
21037;DHT22;10677;50.942;4.028;2024-01-11T02:35:18;-1.70;99.90
21037;DHT22;10677;50.942;4.028;2024-01-11T02:37:44;-1.60;99.90
21037;DHT22;10677;50.942;4.028;2024-01-11T02:40:13;-1.60;99.90
21037;DHT22;10677;50.942;4.028;2024-01-11T02:42:39;-1.70;99.90
21037;DHT22;10677;50.942;4.028;2024-01-11T02:45:05;-1.60;99.90
21037;DHT22;10677;50.942;4.028;2024-01-11T02:47:31;-1.60;99.90
21037;DHT22;10677;50.942;4.028;2024-01-11T02:49:56;-1.60;99.90
21037;DHT22;10677;50.942;4.028;2024-01-11T02:52:23;-1.60;99.90
21037;DHT22;10677;50.942;4.028;2024-01-11T02:54:49;-1.60;99.90
21037;DHT22;10677;50.942;4.028;2024-01-11T02:57:14;-1.60;99.90
21037;DHT22;10677;50.942;4.028;2024-01-11T02:59:42;-1.70;99.90
21037;DHT22;10677;50.942;4.028;2024-01-11T03:02:08;-1.70;99.90
21037;DHT22;10677;50.942;4.028;2024-01-11T03:04:34;-1.70;99.90
21037;DHT22;10677;50.942;4.028;2024-01-11T03:06:59;-1.70;99.90
21037;DHT22;10677;50.942;4.028;2024-01-11T03:09:25;-1.70;99.90
21037;DHT22;10677;50.942;4.028;2024-01-11T03:11:51;-1.70;99.90
21037;DHT22;10677;50.942;4.028;2024-01-11T03:14:16;-1.70;99.90
21037;DHT22;10677;50.942;4.028;2024-01-11T03:16:42;-1.70;99.90
21037;DHT22;10677;50.942;4.028;2024-01-11T03:19:08;-1.70;99.90
21037;DHT22;10677;50.942;4.028;2024-01-11T03:21:34;-1.70;99.90
21037;DHT22;10677;50.942;4.028;2024-01-11T03:23:59;-1.70;99.90
21037;DHT22;10677;50.942;4.028;2024-01-11T03:26:26;-1.80;99.90
21037;DHT22;10677;50.942;4.028;2024-01-11T03:28:52;-1.80;99.90
21037;DHT22;10677;50.942;4.028;2024-01-11T03:31:18;-1.90;99.90
21037;DHT22;10677;50.942;4.028;2024-01-11T03:33:43;-1.90;99.90
21037;DHT22;10677;50.942;4.028;2024-01-11T03:36:10;-2.10;99.90
21037;DHT22;10677;50.942;4.028;2024-01-11T03:38:37;-2.10;99.90
21037;DHT22;10677;50.942;4.028;2024-01-11T03:41:07;-2.00;99.90
21037;DHT22;10677;50.942;4.028;2024-01-11T03:43:34;-1.80;99.90
21037;DHT22;10677;50.942;4.028;2024-01-11T03:45:59;-1.70;99.90
21037;DHT22;10677;50.942;4.028;2024-01-11T03:48:25;-1.70;99.90
21037;DHT22;10677;50.942;4.028;2024-01-11T03:50:51;-1.60;99.90
21037;DHT22;10677;50.942;4.028;2024-01-11T03:53:17;-1.60;99.90
21037;DHT22;10677;50.942;4.028;2024-01-11T03:55:42;-1.70;99.90
21037;DHT22;10677;50.942;4.028;2024-01-11T03:58:08;-1.70;99.90
21037;DHT22;10677;50.942;4.028;2024-01-11T04:00:34;-1.90;99.90
21037;DHT22;10677;50.942;4.028;2024-01-11T04:02:59;-1.90;99.90
21037;DHT22;10677;50.942;4.028;2024-01-11T04:05:27;-2.10;99.90
21037;DHT22;10677;50.942;4.028;2024-01-11T04:07:52;-2.00;99.90
21037;DHT22;10677;50.942;4.028;2024-01-11T04:10:18;-2.10;99.90
21037;DHT22;10677;50.942;4.028;2024-01-11T04:12:45;-2.10;99.90
21037;DHT22;10677;50.942;4.028;2024-01-11T04:15:14;-2.10;99.90
21037;DHT22;10677;50.942;4.028;2024-01-11T04:17:40;-2.10;99.90
21037;DHT22;10677;50.942;4.028;2024-01-11T04:20:07;-2.20;99.90
21037;DHT22;10677;50.942;4.028;2024-01-11T04:22:34;-2.20;99.90
21037;DHT22;10677;50.942;4.028;2024-01-11T04:25:00;-2.10;99.90
21037;DHT22;10677;50.942;4.028;2024-01-11T04:27:26;-2.00;99.90
21037;DHT22;10677;50.942;4.028;2024-01-11T04:29:51;-2.10;99.90
21037;DHT22;10677;50.942;4.028;2024-01-11T04:32:17;-2.10;99.90
21037;DHT22;10677;50.942;4.028;2024-01-11T04:34:43;-2.20;99.90
21037;DHT22;10677;50.942;4.028;2024-01-11T04:37:09;-2.30;99.90
21037;DHT22;10677;50.942;4.028;2024-01-11T04:39:35;-2.20;99.90
21037;DHT22;10677;50.942;4.028;2024-01-11T04:42:01;-2.30;99.90
21037;DHT22;10677;50.942;4.028;2024-01-11T04:44:27;-2.30;99.90
21037;DHT22;10677;50.942;4.028;2024-01-11T04:46:53;-2.50;99.90
21037;DHT22;10677;50.942;4.028;2024-01-11T04:49:18;-2.50;99.90
21037;DHT22;10677;50.942;4.028;2024-01-11T04:51:44;-2.60;99.90
21037;DHT22;10677;50.942;4.028;2024-01-11T04:54:10;-2.60;99.90
21037;DHT22;10677;50.942;4.028;2024-01-11T04:56:36;-2.60;99.90
21037;DHT22;10677;50.942;4.028;2024-01-11T04:59:01;-2.60;99.90
21037;DHT22;10677;50.942;4.028;2024-01-11T05:01:27;-2.60;99.90
21037;DHT22;10677;50.942;4.028;2024-01-11T05:03:52;-2.60;99.90
21037;DHT22;10677;50.942;4.028;2024-01-11T05:06:20;-2.70;99.90
21037;DHT22;10677;50.942;4.028;2024-01-11T05:08:51;-2.90;99.90
21037;DHT22;10677;50.942;4.028;2024-01-11T05:11:20;-2.70;99.90
21037;DHT22;10677;50.942;4.028;2024-01-11T05:13:48;-2.50;99.90
21037;DHT22;10677;50.942;4.028;2024-01-11T05:16:31;-2.30;99.90
21037;DHT22;10677;50.942;4.028;2024-01-11T05:18:58;-2.30;99.90
21037;DHT22;10677;50.942;4.028;2024-01-11T05:21:24;-2.40;99.90
21037;DHT22;10677;50.942;4.028;2024-01-11T05:23:50;-2.40;99.90
21037;DHT22;10677;50.942;4.028;2024-01-11T05:26:18;-2.40;99.90
21037;DHT22;10677;50.942;4.028;2024-01-11T05:28:44;-2.40;99.90
21037;DHT22;10677;50.942;4.028;2024-01-11T05:31:14;-2.50;99.90
21037;DHT22;10677;50.942;4.028;2024-01-11T05:33:41;-2.40;99.90
21037;DHT22;10677;50.942;4.028;2024-01-11T05:36:07;-2.40;99.90
21037;DHT22;10677;50.942;4.028;2024-01-11T05:38:33;-2.40;99.90
21037;DHT22;10677;50.942;4.028;2024-01-11T05:40:59;-2.40;99.90
21037;DHT22;10677;50.942;4.028;2024-01-11T05:43:25;-2.60;99.90
21037;DHT22;10677;50.942;4.028;2024-01-11T05:45:51;-2.40;99.90
21037;DHT22;10677;50.942;4.028;2024-01-11T05:48:17;-2.60;99.90
21037;DHT22;10677;50.942;4.028;2024-01-11T05:50:44;-2.50;99.90
21037;DHT22;10677;50.942;4.028;2024-01-11T05:53:10;-2.50;99.90
21037;DHT22;10677;50.942;4.028;2024-01-11T05:55:36;-2.50;99.90
21037;DHT22;10677;50.942;4.028;2024-01-11T05:58:01;-2.60;99.90
21037;DHT22;10677;50.942;4.028;2024-01-11T06:00:27;-2.50;99.90
21037;DHT22;10677;50.942;4.028;2024-01-11T06:02:53;-2.40;99.90
21037;DHT22;10677;50.942;4.028;2024-01-11T06:05:18;-2.40;99.90
21037;DHT22;10677;50.942;4.028;2024-01-11T06:07:44;-2.30;99.90
21037;DHT22;10677;50.942;4.028;2024-01-11T06:10:10;-2.20;99.90
21037;DHT22;10677;50.942;4.028;2024-01-11T06:12:35;-2.10;99.90
21037;DHT22;10677;50.942;4.028;2024-01-11T06:15:02;-2.00;99.90
21037;DHT22;10677;50.942;4.028;2024-01-11T06:17:28;-2.10;99.90
21037;DHT22;10677;50.942;4.028;2024-01-11T06:19:54;-2.10;99.90
21037;DHT22;10677;50.942;4.028;2024-01-11T06:22:20;-2.20;99.90
21037;DHT22;10677;50.942;4.028;2024-01-11T06:24:46;-2.20;99.90
21037;DHT22;10677;50.942;4.028;2024-01-11T06:27:11;-2.40;99.90
21037;DHT22;10677;50.942;4.028;2024-01-11T06:29:38;-2.30;99.90
21037;DHT22;10677;50.942;4.028;2024-01-11T06:32:04;-2.30;99.90
21037;DHT22;10677;50.942;4.028;2024-01-11T06:34:30;-2.20;99.90
21037;DHT22;10677;50.942;4.028;2024-01-11T06:36:56;-2.10;99.90
21037;DHT22;10677;50.942;4.028;2024-01-11T06:39:21;-2.20;99.90
21037;DHT22;10677;50.942;4.028;2024-01-11T06:41:47;-2.30;99.90
21037;DHT22;10677;50.942;4.028;2024-01-11T06:44:13;-2.20;99.90
21037;DHT22;10677;50.942;4.028;2024-01-11T06:46:40;-2.20;99.90
21037;DHT22;10677;50.942;4.028;2024-01-11T06:49:07;-2.10;99.90
21037;DHT22;10677;50.942;4.028;2024-01-11T06:51:33;-2.10;99.90
21037;DHT22;10677;50.942;4.028;2024-01-11T06:53:59;-2.10;99.90
21037;DHT22;10677;50.942;4.028;2024-01-11T06:56:27;-2.20;99.90
21037;DHT22;10677;50.942;4.028;2024-01-11T06:58:54;-2.20;99.90
21037;DHT22;10677;50.942;4.028;2024-01-11T07:01:20;-2.20;99.90
21037;DHT22;10677;50.942;4.028;2024-01-11T07:03:46;-2.40;99.90
21037;DHT22;10677;50.942;4.028;2024-01-11T07:06:11;-2.60;99.90
21037;DHT22;10677;50.942;4.028;2024-01-11T07:08:37;-2.70;99.90
21037;DHT22;10677;50.942;4.028;2024-01-11T07:11:03;-2.60;99.90
21037;DHT22;10677;50.942;4.028;2024-01-11T07:13:31;-2.60;99.90
21037;DHT22;10677;50.942;4.028;2024-01-11T07:15:57;-2.60;99.90
21037;DHT22;10677;50.942;4.028;2024-01-11T07:18:24;-2.60;99.90
21037;DHT22;10677;50.942;4.028;2024-01-11T07:20:50;-2.50;99.90
21037;DHT22;10677;50.942;4.028;2024-01-11T07:23:16;-2.30;99.90
21037;DHT22;10677;50.942;4.028;2024-01-11T07:29:05;-2.30;99.90
21037;DHT22;10677;50.942;4.028;2024-01-11T07:31:30;-2.50;99.90
21037;DHT22;10677;50.942;4.028;2024-01-11T07:33:56;-2.60;99.90
21037;DHT22;10677;50.942;4.028;2024-01-11T07:36:22;-2.60;99.90
21037;DHT22;10677;50.942;4.028;2024-01-11T07:38:48;-2.50;99.90
21037;DHT22;10677;50.942;4.028;2024-01-11T07:41:14;-2.40;99.90
21037;DHT22;10677;50.942;4.028;2024-01-11T07:43:40;-2.30;99.90
21037;DHT22;10677;50.942;4.028;2024-01-11T07:46:06;-2.30;99.90
21037;DHT22;10677;50.942;4.028;2024-01-11T07:48:33;-2.30;99.90
21037;DHT22;10677;50.942;4.028;2024-01-11T07:50:59;-2.30;99.90
21037;DHT22;10677;50.942;4.028;2024-01-11T07:53:25;-2.40;99.90
21037;DHT22;10677;50.942;4.028;2024-01-11T07:55:54;-2.40;99.90
21037;DHT22;10677;50.942;4.028;2024-01-11T07:58:21;-2.50;99.90
21037;DHT22;10677;50.942;4.028;2024-01-11T08:00:47;-2.70;99.90
21037;DHT22;10677;50.942;4.028;2024-01-11T08:03:14;-2.80;99.90
21037;DHT22;10677;50.942;4.028;2024-01-11T08:05:40;-2.90;99.90
21037;DHT22;10677;50.942;4.028;2024-01-11T08:08:05;-2.80;99.90
21037;DHT22;10677;50.942;4.028;2024-01-11T08:10:32;-2.60;99.90
21037;DHT22;10677;50.942;4.028;2024-01-11T08:12:58;-2.40;99.90
21037;DHT22;10677;50.942;4.028;2024-01-11T08:15:25;-2.50;99.90
21037;DHT22;10677;50.942;4.028;2024-01-11T08:17:51;-2.40;99.90
21037;DHT22;10677;50.942;4.028;2024-01-11T08:20:16;-2.30;99.90
21037;DHT22;10677;50.942;4.028;2024-01-11T08:22:42;-2.20;99.90
21037;DHT22;10677;50.942;4.028;2024-01-11T08:25:14;-2.10;99.90
21037;DHT22;10677;50.942;4.028;2024-01-11T08:27:40;-2.20;99.90
21037;DHT22;10677;50.942;4.028;2024-01-11T08:30:09;-2.40;99.90
21037;DHT22;10677;50.942;4.028;2024-01-11T08:32:36;-2.30;99.90
21037;DHT22;10677;50.942;4.028;2024-01-11T08:35:05;-2.20;99.90
21037;DHT22;10677;50.942;4.028;2024-01-11T08:37:32;-2.30;99.90
21037;DHT22;10677;50.942;4.028;2024-01-11T08:39:58;-2.50;99.90
21037;DHT22;10677;50.942;4.028;2024-01-11T08:42:25;-2.70;99.90
21037;DHT22;10677;50.942;4.028;2024-01-11T08:44:51;-2.60;99.90
21037;DHT22;10677;50.942;4.028;2024-01-11T08:47:18;-2.40;99.90
21037;DHT22;10677;50.942;4.028;2024-01-11T08:49:44;-2.40;99.90
21037;DHT22;10677;50.942;4.028;2024-01-11T08:52:09;-2.30;99.90
21037;DHT22;10677;50.942;4.028;2024-01-11T08:54:35;-2.40;99.90
21037;DHT22;10677;50.942;4.028;2024-01-11T08:57:01;-2.80;99.90
21037;DHT22;10677;50.942;4.028;2024-01-11T08:59:27;-2.70;99.90
21037;DHT22;10677;50.942;4.028;2024-01-11T09:01:54;-2.90;99.90
21037;DHT22;10677;50.942;4.028;2024-01-11T09:04:20;-2.90;99.90
21037;DHT22;10677;50.942;4.028;2024-01-11T09:06:45;-2.70;99.90
21037;DHT22;10677;50.942;4.028;2024-01-11T09:09:14;-2.70;99.90
21037;DHT22;10677;50.942;4.028;2024-01-11T09:11:41;-2.70;99.90
21037;DHT22;10677;50.942;4.028;2024-01-11T09:14:07;-2.70;99.90
21037;DHT22;10677;50.942;4.028;2024-01-11T09:16:33;-2.70;99.90
21037;DHT22;10677;50.942;4.028;2024-01-11T09:18:59;-2.70;99.90
21037;DHT22;10677;50.942;4.028;2024-01-11T09:21:26;-2.70;99.90
21037;DHT22;10677;50.942;4.028;2024-01-11T09:23:52;-2.60;99.90
21037;DHT22;10677;50.942;4.028;2024-01-11T09:26:17;-2.10;99.90
21037;DHT22;10677;50.942;4.028;2024-01-11T09:28:43;-1.70;99.90
21037;DHT22;10677;50.942;4.028;2024-01-11T09:31:09;-1.70;99.90
21037;DHT22;10677;50.942;4.028;2024-01-11T09:33:38;-1.90;99.90
21037;DHT22;10677;50.942;4.028;2024-01-11T09:36:04;-1.80;99.90
21037;DHT22;10677;50.942;4.028;2024-01-11T09:38:30;-1.80;99.90
21037;DHT22;10677;50.942;4.028;2024-01-11T09:41:16;-1.90;99.90
21037;DHT22;10677;50.942;4.028;2024-01-11T09:43:42;-2.00;99.90
21037;DHT22;10677;50.942;4.028;2024-01-11T09:46:12;-2.20;99.90
21037;DHT22;10677;50.942;4.028;2024-01-11T09:48:39;-2.20;99.90
21037;DHT22;10677;50.942;4.028;2024-01-11T09:51:11;-2.20;99.90
21037;DHT22;10677;50.942;4.028;2024-01-11T09:53:39;-2.30;99.90
21037;DHT22;10677;50.942;4.028;2024-01-11T09:56:09;-2.10;99.90
21037;DHT22;10677;50.942;4.028;2024-01-11T09:58:36;-1.90;99.90
21037;DHT22;10677;50.942;4.028;2024-01-11T10:01:02;-2.00;99.90
21037;DHT22;10677;50.942;4.028;2024-01-11T10:03:29;-2.00;99.90
21037;DHT22;10677;50.942;4.028;2024-01-11T10:05:58;-2.00;99.90
21037;DHT22;10677;50.942;4.028;2024-01-11T10:08:25;-1.90;99.90
21037;DHT22;10677;50.942;4.028;2024-01-11T10:10:51;-1.80;99.90
21037;DHT22;10677;50.942;4.028;2024-01-11T10:13:18;-1.90;99.90
21037;DHT22;10677;50.942;4.028;2024-01-11T10:15:44;-1.90;99.90
21037;DHT22;10677;50.942;4.028;2024-01-11T10:18:10;-1.90;99.90
21037;DHT22;10677;50.942;4.028;2024-01-11T10:20:37;-1.90;99.90
21037;DHT22;10677;50.942;4.028;2024-01-11T10:23:03;-1.90;99.90
21037;DHT22;10677;50.942;4.028;2024-01-11T10:25:29;-1.90;99.90
21037;DHT22;10677;50.942;4.028;2024-01-11T10:27:55;-1.90;99.90
21037;DHT22;10677;50.942;4.028;2024-01-11T10:30:20;-1.80;99.90
21037;DHT22;10677;50.942;4.028;2024-01-11T10:32:48;-1.80;99.90
21037;DHT22;10677;50.942;4.028;2024-01-11T10:35:15;-1.80;99.90
21037;DHT22;10677;50.942;4.028;2024-01-11T10:37:43;-1.70;99.90
21037;DHT22;10677;50.942;4.028;2024-01-11T10:40:10;-1.50;99.90
21037;DHT22;10677;50.942;4.028;2024-01-11T10:42:43;-1.50;99.90
21037;DHT22;10677;50.942;4.028;2024-01-11T10:45:28;-1.50;99.90
21037;DHT22;10677;50.942;4.028;2024-01-11T10:48:01;-1.60;99.90
21037;DHT22;10677;50.942;4.028;2024-01-11T10:50:32;-1.50;99.90
21037;DHT22;10677;50.942;4.028;2024-01-11T10:53:23;-1.40;99.90
21037;DHT22;10677;50.942;4.028;2024-01-11T10:55:55;-1.30;99.90
21037;DHT22;10677;50.942;4.028;2024-01-11T10:58:24;-1.40;99.90
21037;DHT22;10677;50.942;4.028;2024-01-11T11:00:53;-1.30;99.90
21037;DHT22;10677;50.942;4.028;2024-01-11T11:03:26;-1.30;99.90
21037;DHT22;10677;50.942;4.028;2024-01-11T11:05:54;-1.30;99.90
21037;DHT22;10677;50.942;4.028;2024-01-11T11:08:23;-1.30;99.90
21037;DHT22;10677;50.942;4.028;2024-01-11T11:10:59;-1.30;99.90
21037;DHT22;10677;50.942;4.028;2024-01-11T11:13:25;-1.20;99.90
21037;DHT22;10677;50.942;4.028;2024-01-11T11:15:52;-1.20;99.90
21037;DHT22;10677;50.942;4.028;2024-01-11T11:18:19;-1.20;99.90
21037;DHT22;10677;50.942;4.028;2024-01-11T11:20:46;-1.10;99.90
21037;DHT22;10677;50.942;4.028;2024-01-11T11:23:15;-1.10;99.90
21037;DHT22;10677;50.942;4.028;2024-01-11T11:25:44;-1.10;99.90
21037;DHT22;10677;50.942;4.028;2024-01-11T11:28:17;-1.10;99.90
21037;DHT22;10677;50.942;4.028;2024-01-11T11:30:44;-1.00;99.90
21037;DHT22;10677;50.942;4.028;2024-01-11T11:33:18;-0.90;99.90
21037;DHT22;10677;50.942;4.028;2024-01-11T11:35:46;-0.80;99.90
21037;DHT22;10677;50.942;4.028;2024-01-11T11:38:28;-0.70;99.90
21037;DHT22;10677;50.942;4.028;2024-01-11T11:40:56;-0.60;99.90
21037;DHT22;10677;50.942;4.028;2024-01-11T11:43:22;-0.60;99.90
21037;DHT22;10677;50.942;4.028;2024-01-11T11:45:49;-0.50;99.90
21037;DHT22;10677;50.942;4.028;2024-01-11T11:51:12;-0.30;99.90
21037;DHT22;10677;50.942;4.028;2024-01-11T11:53:40;-0.30;99.90
21037;DHT22;10677;50.942;4.028;2024-01-11T11:56:07;-0.30;99.90
21037;DHT22;10677;50.942;4.028;2024-01-11T11:58:35;-0.10;99.90
21037;DHT22;10677;50.942;4.028;2024-01-11T12:01:02;0.10;99.90
21037;DHT22;10677;50.942;4.028;2024-01-11T12:03:47;0.00;99.90
21037;DHT22;10677;50.942;4.028;2024-01-11T12:06:20;0.00;99.90
21037;DHT22;10677;50.942;4.028;2024-01-11T12:08:47;0.10;99.90
21037;DHT22;10677;50.942;4.028;2024-01-11T12:11:14;0.10;99.90
21037;DHT22;10677;50.942;4.028;2024-01-11T12:13:41;0.10;99.90
21037;DHT22;10677;50.942;4.028;2024-01-11T12:16:06;0.10;99.90
21037;DHT22;10677;50.942;4.028;2024-01-11T12:18:32;0.30;99.90
21037;DHT22;10677;50.942;4.028;2024-01-11T12:20:58;0.30;99.90
21037;DHT22;10677;50.942;4.028;2024-01-11T12:23:24;0.40;99.90
21037;DHT22;10677;50.942;4.028;2024-01-11T12:25:50;0.40;99.90
21037;DHT22;10677;50.942;4.028;2024-01-11T12:28:18;0.50;99.90
21037;DHT22;10677;50.942;4.028;2024-01-11T12:30:45;0.50;99.90
21037;DHT22;10677;50.942;4.028;2024-01-11T12:33:12;0.40;99.90
21037;DHT22;10677;50.942;4.028;2024-01-11T12:35:38;0.50;99.90
21037;DHT22;10677;50.942;4.028;2024-01-11T12:38:05;0.50;99.90
21037;DHT22;10677;50.942;4.028;2024-01-11T12:40:35;0.70;99.90
21037;DHT22;10677;50.942;4.028;2024-01-11T12:43:03;0.60;99.90
21037;DHT22;10677;50.942;4.028;2024-01-11T12:45:29;0.60;99.90
21037;DHT22;10677;50.942;4.028;2024-01-11T12:47:58;0.60;99.90
21037;DHT22;10677;50.942;4.028;2024-01-11T12:50:23;0.60;99.90
21037;DHT22;10677;50.942;4.028;2024-01-11T12:56:03;0.70;99.90
21037;DHT22;10677;50.942;4.028;2024-01-11T12:58:33;0.80;99.90
21037;DHT22;10677;50.942;4.028;2024-01-11T13:00:59;0.90;99.90
21037;DHT22;10677;50.942;4.028;2024-01-11T13:03:26;0.90;99.90
21037;DHT22;10677;50.942;4.028;2024-01-11T13:05:55;1.00;99.90
21037;DHT22;10677;50.942;4.028;2024-01-11T13:08:21;1.00;99.90
21037;DHT22;10677;50.942;4.028;2024-01-11T13:10:47;0.90;99.90
21037;DHT22;10677;50.942;4.028;2024-01-11T13:13:13;1.00;99.90
21037;DHT22;10677;50.942;4.028;2024-01-11T13:15:40;1.00;99.90
21037;DHT22;10677;50.942;4.028;2024-01-11T13:18:06;1.10;99.90
21037;DHT22;10677;50.942;4.028;2024-01-11T13:20:32;1.00;99.90
21037;DHT22;10677;50.942;4.028;2024-01-11T13:23:15;1.10;99.90
21037;DHT22;10677;50.942;4.028;2024-01-11T13:25:44;1.10;99.90
21037;DHT22;10677;50.942;4.028;2024-01-11T13:28:10;1.10;99.90
21037;DHT22;10677;50.942;4.028;2024-01-11T13:30:41;1.20;99.90
21037;DHT22;10677;50.942;4.028;2024-01-11T13:33:08;1.40;99.90
21037;DHT22;10677;50.942;4.028;2024-01-11T13:35:35;1.20;99.90
21037;DHT22;10677;50.942;4.028;2024-01-11T13:38:01;1.10;99.90
21037;DHT22;10677;50.942;4.028;2024-01-11T13:40:28;1.20;99.90
21037;DHT22;10677;50.942;4.028;2024-01-11T13:42:55;1.20;99.90
21037;DHT22;10677;50.942;4.028;2024-01-11T13:45:22;1.30;99.90
21037;DHT22;10677;50.942;4.028;2024-01-11T13:47:48;1.30;99.90
21037;DHT22;10677;50.942;4.028;2024-01-11T13:50:14;1.20;99.90
21037;DHT22;10677;50.942;4.028;2024-01-11T13:52:40;1.20;99.90
21037;DHT22;10677;50.942;4.028;2024-01-11T13:55:07;1.30;99.90
21037;DHT22;10677;50.942;4.028;2024-01-11T13:57:35;1.30;99.90
21037;DHT22;10677;50.942;4.028;2024-01-11T14:00:03;1.30;99.90
21037;DHT22;10677;50.942;4.028;2024-01-11T14:02:29;1.40;99.90
21037;DHT22;10677;50.942;4.028;2024-01-11T14:07:30;1.40;99.90
21037;DHT22;10677;50.942;4.028;2024-01-11T14:09:56;1.40;99.90
21037;DHT22;10677;50.942;4.028;2024-01-11T14:12:23;1.40;99.90
21037;DHT22;10677;50.942;4.028;2024-01-11T14:14:49;1.40;99.90
21037;DHT22;10677;50.942;4.028;2024-01-11T14:17:14;1.40;99.90
21037;DHT22;10677;50.942;4.028;2024-01-11T14:22:15;1.40;99.90
21037;DHT22;10677;50.942;4.028;2024-01-11T14:24:41;1.30;99.90
21037;DHT22;10677;50.942;4.028;2024-01-11T14:27:07;1.30;99.90
21037;DHT22;10677;50.942;4.028;2024-01-11T14:29:32;1.30;99.90
21037;DHT22;10677;50.942;4.028;2024-01-11T14:31:58;1.40;99.90
21037;DHT22;10677;50.942;4.028;2024-01-11T14:34:24;1.40;99.90
21037;DHT22;10677;50.942;4.028;2024-01-11T14:36:50;1.40;99.90
21037;DHT22;10677;50.942;4.028;2024-01-11T14:39:16;1.30;99.90
21037;DHT22;10677;50.942;4.028;2024-01-11T14:41:42;1.40;99.90
21037;DHT22;10677;50.942;4.028;2024-01-11T14:44:07;1.30;99.90
21037;DHT22;10677;50.942;4.028;2024-01-11T14:46:35;1.40;99.90
21037;DHT22;10677;50.942;4.028;2024-01-11T14:49:01;1.50;99.90
21037;DHT22;10677;50.942;4.028;2024-01-11T14:51:27;1.60;99.90
21037;DHT22;10677;50.942;4.028;2024-01-11T14:53:56;1.60;99.90
21037;DHT22;10677;50.942;4.028;2024-01-11T14:56:22;1.50;99.90
21037;DHT22;10677;50.942;4.028;2024-01-11T14:58:49;1.60;99.90
21037;DHT22;10677;50.942;4.028;2024-01-11T15:01:14;1.40;99.90
21037;DHT22;10677;50.942;4.028;2024-01-11T15:03:40;1.30;99.90
21037;DHT22;10677;50.942;4.028;2024-01-11T15:06:06;1.30;99.90
21037;DHT22;10677;50.942;4.028;2024-01-11T15:08:32;1.30;99.90
21037;DHT22;10677;50.942;4.028;2024-01-11T15:11:32;1.40;99.90
21037;DHT22;10677;50.942;4.028;2024-01-11T15:14:01;1.60;99.90
21037;DHT22;10677;50.942;4.028;2024-01-11T15:16:28;1.90;99.90
21037;DHT22;10677;50.942;4.028;2024-01-11T15:18:55;2.10;99.90
21037;DHT22;10677;50.942;4.028;2024-01-11T15:21:22;2.10;99.90
21037;DHT22;10677;50.942;4.028;2024-01-11T15:23:48;2.00;99.90
21037;DHT22;10677;50.942;4.028;2024-01-11T15:26:13;2.10;99.90
21037;DHT22;10677;50.942;4.028;2024-01-11T15:28:39;2.00;99.90
21037;DHT22;10677;50.942;4.028;2024-01-11T15:31:07;2.00;99.90
21037;DHT22;10677;50.942;4.028;2024-01-11T15:33:34;2.00;99.90
21037;DHT22;10677;50.942;4.028;2024-01-11T15:36:00;2.00;99.90
21037;DHT22;10677;50.942;4.028;2024-01-11T15:38:26;1.80;99.90
21037;DHT22;10677;50.942;4.028;2024-01-11T15:40:53;1.90;99.90
21037;DHT22;10677;50.942;4.028;2024-01-11T15:43:20;2.00;99.90
21037;DHT22;10677;50.942;4.028;2024-01-11T15:45:46;1.90;99.90
21037;DHT22;10677;50.942;4.028;2024-01-11T15:48:11;1.80;99.90